Time,TemperatureF,DewpointF,PressureIn,WindDirection,WindDirectionDegrees,WindSpeedMPH,WindSpeedGustMPH,Humidity,HourlyPrecipIn,Conditions,Clouds,dailyrainin,SoftwareType,DateUTC
2013-07-28 01:32:00,66.0,44.0,-100.00,SE,135,1.0,4.0,45,0.00,,,0.00,,2013-07-28 09:32:00,
2013-07-28 01:43:00,66.0,44.0,-100.00,SE,135,1.0,4.0,45,0.00,,,0.00,,2013-07-28 09:43:00,
2013-07-28 01:53:00,66.0,45.0,-100.00,South,180,2.0,6.0,45,0.00,,,0.00,,2013-07-28 09:53:00,
2013-07-28 02:02:00,66.0,45.0,-100.00,South,180,2.0,6.0,45,0.00,,,0.00,,2013-07-28 10:02:00,
2013-07-28 02:12:00,66.0,45.0,-100.00,South,180,2.0,6.0,45,0.00,,,0.00,,2013-07-28 10:12:00,
2013-07-28 02:42:00,67.0,45.0,-100.00,SW,230,3.0,9.0,45,0.00,,,0.00,,2013-07-28 10:42:00,
2013-07-28 03:12:00,67.0,45.0,-100.00,West,270,4.0,9.0,44,0.00,,,0.00,,2013-07-28 11:12:00,
2013-07-28 03:53:00,67.0,45.0,-100.00,WNW,285,4.0,8.0,44,0.00,,,0.00,,2013-07-28 11:53:00,
2013-07-28 09:43:00,66.0,47.0,-100.00,SSE,165,0.0,2.0,49,0.00,,,0.00,,2013-07-28 17:43:00,
2013-07-28 10:02:00,68.0,47.0,-100.00,SSE,165,1.0,3.0,48,0.00,,,0.00,,2013-07-28 18:02:00,
2013-07-28 10:12:00,68.0,47.0,-100.00,SSE,165,1.0,3.0,48,0.00,,,0.00,,2013-07-28 18:12:00,
2013-07-28 10:32:00,71.0,49.0,-100.00,SSW,200,1.0,4.0,44,0.00,,,0.00,,2013-07-28 18:32:00,
2013-07-28 10:43:00,71.0,49.0,-100.00,SSW,200,1.0,4.0,44,0.00,,,0.00,,2013-07-28 18:43:00,
2013-07-28 10:52:00,74.0,50.0,-100.00,NE,40,1.0,4.0,43,0.00,,,0.00,,2013-07-28 18:52:00,
2013-07-28 11:02:00,74.0,50.0,-100.00,NE,40,1.0,4.0,43,0.00,,,0.00,,2013-07-28 19:02:00,
2013-07-28 11:12:00,74.0,50.0,-100.00,NE,40,1.0,4.0,43,0.00,,,0.00,,2013-07-28 19:12:00,
2013-07-28 11:22:00,73.0,50.0,-100.00,WNW,290,3.0,4.0,43,0.00,,,0.00,,2013-07-28 19:22:00,
2013-07-28 11:32:00,73.0,50.0,-100.00,WNW,290,3.0,4.0,43,0.00,,,0.00,,2013-07-28 19:32:00,
2013-07-28 11:43:00,73.0,50.0,-100.00,WNW,290,3.0,4.0,43,0.00,,,0.00,,2013-07-28 19:43:00,
2013-07-28 11:52:00,75.0,50.0,-100.00,WSW,255,2.0,7.0,42,0.00,,,0.00,,2013-07-28 19:52:00,
2013-07-28 12:02:00,75.0,50.0,-100.00,WSW,255,2.0,7.0,42,0.00,,,0.00,,2013-07-28 20:02:00,
2013-07-28 12:12:00,75.0,50.0,-100.00,WSW,255,2.0,7.0,42,0.00,,,0.00,,2013-07-28 20:12:00,
2013-07-28 12:20:00,77.0,50.0,-100.00,NW,320,2.0,7.0,39,0.00,,,0.00,,2013-07-28 20:20:00,
2013-07-28 12:33:00,75.0,50.0,-100.00,West,265,6.0,10.0,40,0.00,,,0.00,,2013-07-28 20:33:00,
2013-07-28 12:43:00,75.0,50.0,-100.00,West,265,6.0,10.0,40,0.00,,,0.00,,2013-07-28 20:43:00,
2013-07-28 12:52:00,77.0,50.0,-100.00,NW,320,2.0,7.0,39,0.00,,,0.00,,2013-07-28 20:52:00,
2013-07-28 13:02:00,77.0,50.0,-100.00,NW,320,2.0,7.0,39,0.00,,,0.00,,2013-07-28 21:02:00,
2013-07-28 13:12:00,77.0,50.0,-100.00,NW,320,2.0,7.0,39,0.00,,,0.00,,2013-07-28 21:12:00,
2013-07-28 13:20:00,77.0,49.0,-100.00,West,275,4.0,12.0,36,0.00,,,0.00,,2013-07-28 21:20:00,
2013-07-28 13:33:00,77.0,49.0,-100.00,WNW,295,2.0,10.0,38,0.00,,,0.00,,2013-07-28 21:33:00,
2013-07-28 13:44:00,77.0,49.0,-100.00,WNW,295,2.0,10.0,38,0.00,,,0.00,,2013-07-28 21:44:00,
2013-07-28 13:52:00,77.0,49.0,-100.00,West,275,4.0,12.0,36,0.00,,,0.00,,2013-07-28 21:52:00,
2013-07-28 14:01:00,77.0,49.0,-100.00,West,275,4.0,12.0,36,0.00,,,0.00,,2013-07-28 22:01:00,
2013-07-28 14:12:00,77.0,49.0,-100.00,West,275,4.0,12.0,36,0.00,,,0.00,,2013-07-28 22:12:00,
2013-07-28 14:43:00,78.0,49.0,-100.00,WNW,285,4.0,10.0,35,0.00,,,0.00,,2013-07-28 22:43:00,
2013-07-28 14:52:00,79.0,49.0,-100.00,WNW,295,6.0,11.0,35,0.00,,,0.00,,2013-07-28 22:52:00,
2013-07-28 15:03:00,79.0,49.0,-100.00,WNW,295,6.0,11.0,35,0.00,,,0.00,,2013-07-28 23:03:00,
2013-07-28 15:12:00,79.0,49.0,-100.00,WNW,295,6.0,11.0,35,0.00,,,0.00,,2013-07-28 23:12:00,
2013-07-28 15:32:00,79.0,49.0,-100.00,West,275,6.0,12.0,35,0.00,,,0.00,,2013-07-28 23:32:00,
2013-07-28 15:43:00,79.0,49.0,-100.00,West,275,6.0,12.0,35,0.00,,,0.00,,2013-07-28 23:43:00,
2013-07-28 15:53:00,80.0,48.0,-100.00,West,280,6.0,14.0,32,0.00,,,0.00,,2013-07-28 23:53:00,
2013-07-28 16:02:00,80.0,48.0,-100.00,West,280,6.0,14.0,32,0.00,,,0.00,,2013-07-29 00:02:00,
2013-07-28 16:12:00,80.0,48.0,-100.00,West,280,6.0,14.0,32,0.00,,,0.00,,2013-07-29 00:12:00,
2013-07-28 16:22:00,81.0,49.0,-100.00,West,280,5.0,10.0,31,0.00,,,0.00,,2013-07-29 00:22:00,
2013-07-28 16:32:00,81.0,49.0,-100.00,West,280,5.0,10.0,31,0.00,,,0.00,,2013-07-29 00:32:00,
2013-07-28 16:43:00,81.0,49.0,-100.00,West,280,5.0,10.0,31,0.00,,,0.00,,2013-07-29 00:43:00,
2013-07-28 17:02:00,82.0,49.0,-100.00,NW,320,4.0,7.0,31,0.00,,,0.00,,2013-07-29 01:02:00,
2013-07-28 17:12:00,82.0,49.0,-100.00,NW,320,4.0,7.0,31,0.00,,,0.00,,2013-07-29 01:12:00,
2013-07-28 17:20:00,83.0,49.0,-100.00,West,275,6.0,11.0,30,0.00,,,0.00,,2013-07-29 01:20:00,
2013-07-28 17:34:00,81.0,47.0,-100.00,NW,325,7.0,13.0,30,0.00,,,0.00,,2013-07-29 01:34:00,
2013-07-28 18:04:00,83.0,49.0,-100.00,West,275,6.0,11.0,30,0.00,,,0.00,,2013-07-29 02:04:00,
2013-07-28 18:12:00,83.0,49.0,-100.00,West,275,6.0,11.0,30,0.00,,,0.00,,2013-07-29 02:12:00,
2013-07-28 18:35:00,81.0,47.0,-100.00,West,275,5.0,11.0,30,0.00,,,0.00,,2013-07-29 02:35:00,
2013-07-28 18:45:00,81.0,47.0,-100.00,West,275,5.0,11.0,30,0.00,,,0.00,,2013-07-29 02:45:00,
2013-07-28 18:54:00,83.0,47.0,-100.00,WNW,300,4.0,9.0,28,0.00,,,0.00,,2013-07-29 02:54:00,
2013-07-28 19:03:00,83.0,47.0,-100.00,WNW,300,4.0,9.0,28,0.00,,,0.00,,2013-07-29 03:03:00,
2013-07-28 19:14:00,83.0,47.0,-100.00,WNW,300,4.0,9.0,28,0.00,,,0.00,,2013-07-29 03:14:00,
2013-07-28 19:35:00,83.0,47.0,-100.00,NW,310,3.0,14.0,28,0.00,,,0.00,,2013-07-29 03:35:00,
2013-07-28 19:46:00,83.0,47.0,-100.00,NW,310,3.0,14.0,28,0.00,,,0.00,,2013-07-29 03:46:00,
2013-07-28 20:02:00,83.0,46.0,-100.00,NW,325,2.0,10.0,27,0.00,,,0.00,,2013-07-29 04:02:00,
2013-07-28 20:12:00,83.0,46.0,-100.00,NW,325,2.0,10.0,27,0.00,,,0.00,,2013-07-29 04:12:00,
2013-07-28 20:32:00,82.0,46.0,-100.00,NW,320,4.0,10.0,27,0.00,,,0.00,,2013-07-29 04:32:00,
2013-07-28 20:43:00,82.0,46.0,-100.00,NW,320,4.0,10.0,27,0.00,,,0.00,,2013-07-29 04:43:00,
2013-07-28 21:02:00,82.0,46.0,-100.00,WNW,290,4.0,9.0,28,0.00,,,0.00,,2013-07-29 05:02:00,
2013-07-28 21:12:00,82.0,46.0,-100.00,WNW,290,4.0,9.0,28,0.00,,,0.00,,2013-07-29 05:12:00,
2013-07-28 21:32:00,78.0,45.0,-100.00,West,280,4.0,9.0,30,0.00,,,0.00,,2013-07-29 05:32:00,
2013-07-28 21:42:00,78.0,45.0,-100.00,West,280,4.0,9.0,30,0.00,,,0.00,,2013-07-29 05:42:00,
2013-07-28 21:53:00,77.0,45.0,-100.00,West,280,4.0,6.0,32,0.00,,,0.00,,2013-07-29 05:53:00,
2013-07-28 22:02:00,77.0,45.0,-100.00,West,280,4.0,6.0,32,0.00,,,0.00,,2013-07-29 06:02:00,
2013-07-28 22:12:00,77.0,45.0,-100.00,West,280,4.0,6.0,32,0.00,,,0.00,,2013-07-29 06:12:00,
2013-07-28 22:32:00,75.0,45.0,-100.00,NW,305,6.0,14.0,35,0.00,,,0.00,,2013-07-29 06:32:00,
2013-07-28 22:43:00,75.0,45.0,-100.00,NW,305,6.0,14.0,35,0.00,,,0.00,,2013-07-29 06:43:00,
2013-07-28 23:02:00,72.0,48.0,-100.00,North,0,6.0,15.0,42,0.00,,,0.00,,2013-07-29 07:02:00,
2013-07-28 23:12:00,72.0,48.0,-100.00,North,0,6.0,15.0,42,0.00,,,0.00,,2013-07-29 07:12:00,
2013-07-28 23:20:00,69.0,48.0,-100.00,NW,315,5.0,14.0,47,0.00,,,0.00,,2013-07-29 07:20:00,
2013-07-28 23:33:00,69.0,48.0,-100.00,North,0,4.0,7.0,47,0.00,,,0.00,,2013-07-29 07:33:00,
2013-07-28 23:43:00,69.0,48.0,-100.00,North,0,4.0,7.0,47,0.00,,,0.00,,2013-07-29 07:43:00,
2013-07-28 23:53:00,69.0,48.0,-100.00,NW,315,5.0,14.0,47,0.00,,,0.00,,2013-07-29 07:53:00,